Valmy, Wisconsin
Current Conditions -  °F | °C
As of 9:35 PM on Monday 22 Dec 2014 (Local Time) from KSUE Reporting Station
Overcast Overcast  
Wind Chill: 29°   Ceiling: 600
Heat Index: 36°   Visibility: 3mi
Dew Point: 30°   Wind: 9mph
Humidity: 81%   Direction: 110°ESE
Pressure: 29.79"   Gusts: 16mph
Location:  44.7888°N, 87.4464°W
Report Text: KSUE 230335Z AUTO 11008G14KT 3SM OVC006 02/M01 A2979 RMK AO1
Loading
Personal Weather Stations






























Interactive Weather Map New forecast layout! Learn more

10-Day Weather Forecast

Advertisements
Track Severe Weather on mobile